SwedenFixed distance
Österlen Spring Trail - ÖST Ultra 60k
13 Apr2024
Distance
60km
Finishers
328254 men74 women
Winning time
4:13:44h
Median pace
7.96km/h
Pace distribution
328 finishers · 6.47–14.19 km/h · mean 8.19
Every finisher ran the same 60 km course, so these paces are directly comparable.
Histogram of finisher pace. 328 finishers ranged from 6.47 to 14.19 kilometres per hour, with a mean of 8.19 and a median of 7.96. The busiest band is 7.5 to 8.0 kilometres per hour, with 62 finishers.
Results
Ranks 51–100 of 328
| Rank | Runner | Time | Pace | Cat. | Placing |
|---|---|---|---|---|---|
| 52 | Örebro AIK | 6:23:35h | 9.38 | M45 | 42nd M · 11th M45 |
| 53 | Kalmar RC Triathlon | 6:25:46h | 9.33 | W50 | 10th F · 3rd W50 |
| 54 | Majornas IK | 6:26:07h | 9.32 | W45 | 11th F · 3rd W45 |
| 55 | 6:26:11h | 9.32 | M23 | 43rd M · 5th M23 | |
| 56 | Vegan Runners IK | 6:26:17h | 9.32 | M23 | 44th M · 6th M23 |
| 57 | Tjalve FIF | 6:27:46h | 9.28 | M40 | 45th M · 13th M40 |
| 58 | Malmö Gerillalöpare | 6:28:02h | 9.28 | M50 | 46th M · 8th M50 |
| 59 | Örebro AIK | 6:29:43h | 9.24 | M45 | 47th M · 12th M45 |
| 60 | Lonesome Ultrarunners | 6:30:24h | 9.22 | M50 | 48th M · 9th M50 |
| 61 | 6:33:19h | 9.15 | W45 | 12th F · 4th W45 | |
| 62 | IK Vinco | 6:33:54h | 9.14 | M35 | 49th M · 9th M35 |
| 63 | Ingen Klubb | 6:36:56h | 9.07 | M45 | 50th M · 13th M45 |
| 64 | LA Familia LON | 6:37:30h | 9.06 | M45 | 51st M · 14th M45 |
| 65 | Näset Triathlon Äklubb | 6:39:11h | 9.02 | M45 | 52nd M · 15th M45 |
| 66 | 6:40:32h | 8.99 | M35 | 53rd M · 10th M35 | |
| 67 | 6:41:05h | 8.98 | M50 | 54th M · 10th M50 | |
| 68 | SEA Kayak Billdal | 6:41:40h | 8.96 | M55 | 55th M · 1st M55 |
| 69 | 6:44:36h | 8.90 | W35 | 13th F · 4th W35 | |
| 70 | Romeletrail | 6:45:09h | 8.89 | W40 | 14th F · 3rd W40 |
| 71 | Karlshamn SK Triathlon | 6:45:31h | 8.88 | M40 | 56th M · 14th M40 |
| 72 | 6:46:56h | 8.85 | W23 | 15th F · 1st W23 | |
| 73 | 6:47:37h | 8.83 | M55 | 57th M · 2nd M55 | |
| 74 | Malmö Alpin | 6:47:41h | 8.83 | M40 | 58th M · 15th M40 |
| 75 | Kyrkoby Ultra Runners | 6:47:48h | 8.83 | M45 | 59th M · 16th M45 |
| 76 | 6:47:50h | 8.83 | W23 | 16th F · 2nd W23 | |
| 77 | Malmö Gerillalöpare | 6:48:05h | 8.82 | M45 | 60th M · 17th M45 |
| 78 | Gubbvad | 6:49:08h | 8.80 | M40 | 61st M · 16th M40 |
| 79 | 6:49:18h | 8.80 | W40 | 17th F · 4th W40 | |
| 80 | 6:49:21h | 8.79 | M23 | 62nd M · 7th M23 | |
| 81 | GTA | 6:49:45h | 8.79 | W45 | 18th F · 5th W45 |
| 82 | 6:49:49h | 8.78 | M35 | 63rd M · 11th M35 | |
| 83 | Kalmar OK | 6:49:50h | 8.78 | W40 | 19th F · 5th W40 |
| 84 | Case-Link Runners | 6:50:55h | 8.76 | M45 | 64th M · 18th M45 |
| 85 | 6:50:58h | 8.76 | W45 | 20th F · 6th W45 | |
| 86 | Bergspring Sportsclub ... | 6:52:32h | 8.73 | M40 | 65th M · 17th M40 |
| 87 | 6:53:04h | 8.71 | M35 | 66th M · 12th M35 | |
| 88 | Sydantenn & Tele AB | 6:53:04h | 8.71 | MU23 | 66th M · 1st MU23 |
| 89 | Öckerö Räddningstjänst | 6:53:06h | 8.71 | M40 | 68th M · 18th M40 |
| 90 | Vrågärdet | 6:53:20h | 8.71 | M23 | 69th M · 8th M23 |
| 91 | Agnefjäll Fysio AB | 6:53:39h | 8.70 | M23 | 70th M · 9th M23 |
| 92 | 6:53:42h | 8.70 | M40 | 71st M · 19th M40 | |
| 93 | 6:53:44h | 8.70 | M45 | 72nd M · 19th M45 | |
| 94 | 6:55:12h | 8.67 | M40 | 73rd M · 20th M40 | |
| 95 | Stig GBG | 6:56:06h | 8.65 | W45 | 21st F · 7th W45 |
| 96 | Trailrun4Fun | 6:56:47h | 8.64 | W50 | 22nd F · 4th W50 |
| 97 | 6:56:52h | 8.64 | M23 | 74th M · 10th M23 | |
| 98 | Trail & Pandelygtesjov | 6:58:51h | 8.60 | M50 | 75th M · 11th M50 |
| 99 | Trail & Pandelygtesjov | 6:58:51h | 8.60 | M50 | 75th M · 11th M50 |
| 100 | YBS | 6:59:44h | 8.58 | M50 | 77th M · 13th M50 |
| 101 | 7:00:01h | 8.57 | M45 | 78th M · 20th M45 |
- 52Örebro AIK42nd M · 11th M45Time6:23:35hPace9.38Cat.M45
- 53Kalmar RC Triathlon10th F · 3rd W50Time6:25:46hPace9.33Cat.W50
- 54Majornas IK11th F · 3rd W45Time6:26:07hPace9.32Cat.W45
- 5543rd M · 5th M23Time6:26:11hPace9.32Cat.M23
- 56Vegan Runners IK44th M · 6th M23Time6:26:17hPace9.32Cat.M23
- 57Tjalve FIF45th M · 13th M40Time6:27:46hPace9.28Cat.M40
- 58Malmö Gerillalöpare46th M · 8th M50Time6:28:02hPace9.28Cat.M50
- 59Örebro AIK47th M · 12th M45Time6:29:43hPace9.24Cat.M45
- 60Lonesome Ultrarunners48th M · 9th M50Time6:30:24hPace9.22Cat.M50
- 6112th F · 4th W45Time6:33:19hPace9.15Cat.W45
- 62IK Vinco49th M · 9th M35Time6:33:54hPace9.14Cat.M35
- 63Ingen Klubb50th M · 13th M45Time6:36:56hPace9.07Cat.M45
- 64LA Familia LON51st M · 14th M45Time6:37:30hPace9.06Cat.M45
- 65Näset Triathlon Äklubb52nd M · 15th M45Time6:39:11hPace9.02Cat.M45
- 6653rd M · 10th M35Time6:40:32hPace8.99Cat.M35
- 6754th M · 10th M50Time6:41:05hPace8.98Cat.M50
- 68SEA Kayak Billdal55th M · 1st M55Time6:41:40hPace8.96Cat.M55
- 6913th F · 4th W35Time6:44:36hPace8.90Cat.W35
- 70Romeletrail14th F · 3rd W40Time6:45:09hPace8.89Cat.W40
- 71Karlshamn SK Triathlon56th M · 14th M40Time6:45:31hPace8.88Cat.M40
- 7215th F · 1st W23Time6:46:56hPace8.85Cat.W23
- 7357th M · 2nd M55Time6:47:37hPace8.83Cat.M55
- 74Malmö Alpin58th M · 15th M40Time6:47:41hPace8.83Cat.M40
- 75Kyrkoby Ultra Runners59th M · 16th M45Time6:47:48hPace8.83Cat.M45
- 7616th F · 2nd W23Time6:47:50hPace8.83Cat.W23
- 77Malmö Gerillalöpare60th M · 17th M45Time6:48:05hPace8.82Cat.M45
- 78Gubbvad61st M · 16th M40Time6:49:08hPace8.80Cat.M40
- 7917th F · 4th W40Time6:49:18hPace8.80Cat.W40
- 8062nd M · 7th M23Time6:49:21hPace8.79Cat.M23
- 81GTA18th F · 5th W45Time6:49:45hPace8.79Cat.W45
- 8263rd M · 11th M35Time6:49:49hPace8.78Cat.M35
- 83Kalmar OK19th F · 5th W40Time6:49:50hPace8.78Cat.W40
- 84Case-Link Runners64th M · 18th M45Time6:50:55hPace8.76Cat.M45
- 8520th F · 6th W45Time6:50:58hPace8.76Cat.W45
- 86Bergspring Sportsclub ...65th M · 17th M40Time6:52:32hPace8.73Cat.M40
- 8766th M · 12th M35Time6:53:04hPace8.71Cat.M35
- 88Sydantenn & Tele AB66th M · 1st MU23Time6:53:04hPace8.71Cat.MU23
- 89Öckerö Räddningstjänst68th M · 18th M40Time6:53:06hPace8.71Cat.M40
- 90Vrågärdet69th M · 8th M23Time6:53:20hPace8.71Cat.M23
- 91Agnefjäll Fysio AB70th M · 9th M23Time6:53:39hPace8.70Cat.M23
- 9271st M · 19th M40Time6:53:42hPace8.70Cat.M40
- 9372nd M · 19th M45Time6:53:44hPace8.70Cat.M45
- 9473rd M · 20th M40Time6:55:12hPace8.67Cat.M40
- 95Stig GBG21st F · 7th W45Time6:56:06hPace8.65Cat.W45
- 96Trailrun4Fun22nd F · 4th W50Time6:56:47hPace8.64Cat.W50
- 9774th M · 10th M23Time6:56:52hPace8.64Cat.M23
- 98Trail & Pandelygtesjov75th M · 11th M50Time6:58:51hPace8.60Cat.M50
- 99Trail & Pandelygtesjov75th M · 11th M50Time6:58:51hPace8.60Cat.M50
- 100YBS77th M · 13th M50Time6:59:44hPace8.58Cat.M50
- 10178th M · 20th M45Time7:00:01hPace8.57Cat.M45
Showing ranks 51–100 of 328